createdAt,value
2023-01-25T00:02:06.520Z,21.75
2023-01-25T00:04:34.453Z,21.00
2023-01-25T00:07:03.542Z,22.00
2023-01-25T00:09:32.864Z,21.50
2023-01-25T00:12:00.761Z,22.00
2023-01-25T00:14:28.690Z,21.25
2023-01-25T00:16:56.928Z,20.50
2023-01-25T00:19:25.074Z,21.00
2023-01-25T00:21:53.062Z,21.00
2023-01-25T00:24:23.046Z,19.75
2023-01-25T00:26:52.741Z,20.00
2023-01-25T00:29:20.873Z,20.00
2023-01-25T00:31:55.509Z,17.00
2023-01-25T00:34:46.145Z,19.00
2023-01-25T00:37:16.025Z,18.75
2023-01-25T00:39:43.951Z,18.00
2023-01-25T00:42:13.434Z,18.50
2023-01-25T00:44:41.407Z,18.00
2023-01-25T00:47:10.533Z,19.00
2023-01-25T00:49:39.205Z,17.75
2023-01-25T00:52:07.178Z,17.75
2023-01-25T00:54:35.437Z,17.25
2023-01-25T00:57:03.402Z,17.25
2023-01-25T00:59:32.741Z,18.00
2023-01-25T01:02:01.320Z,15.50
2023-01-25T01:04:29.273Z,16.75
2023-01-25T01:06:57.646Z,16.75
2023-01-25T01:09:25.556Z,14.50
2023-01-25T01:11:53.471Z,16.50
2023-01-25T01:14:21.705Z,17.00
2023-01-25T01:16:51.352Z,15.75
2023-01-25T01:19:19.329Z,14.00
2023-01-25T01:21:47.278Z,16.25
2023-01-25T01:24:15.246Z,15.00
2023-01-25T01:26:43.458Z,15.00
2023-01-25T01:29:11.407Z,15.75
2023-01-25T01:31:39.442Z,15.25
2023-01-25T01:34:08.748Z,14.50
2023-01-25T01:36:36.944Z,13.50
2023-01-25T01:39:04.904Z,14.50
2023-01-25T01:41:32.801Z,13.75
2023-01-25T01:44:00.739Z,14.00
2023-01-25T01:46:30.009Z,14.25
2023-01-25T01:48:59.499Z,15.00
2023-01-25T01:51:43.445Z,12.75
2023-01-25T01:54:14.162Z,12.25
2023-01-25T01:56:44.977Z,13.75
2023-01-25T01:59:13.065Z,12.00
2023-01-25T02:01:41.133Z,14.75
2023-01-25T02:04:09.082Z,12.00
2023-01-25T02:06:42.790Z,13.00
2023-01-25T02:09:10.759Z,12.50
2023-01-25T02:11:38.704Z,12.00
2023-01-25T02:14:06.583Z,11.00
2023-01-25T02:16:34.789Z,12.25
2023-01-25T02:19:03.766Z,13.00
2023-01-25T02:21:34.913Z,11.50
2023-01-25T02:24:06.925Z,11.25
2023-01-25T02:26:36.549Z,12.00
2023-01-25T02:29:05.404Z,12.00
2023-01-25T02:31:33.331Z,11.75
2023-01-25T02:34:01.277Z,11.50
2023-01-25T02:36:30.173Z,11.75
2023-01-25T02:39:00.532Z,11.75
2023-01-25T02:41:33.759Z,10.00
2023-01-25T02:44:04.213Z,12.00
2023-01-25T02:46:33.368Z,11.50
2023-01-25T02:49:01.661Z,10.50
2023-01-25T02:51:30.432Z,12.00
2023-01-25T02:53:58.374Z,10.50
2023-01-25T02:56:26.284Z,11.00
2023-01-25T02:58:54.235Z,11.25
2023-01-25T03:01:23.514Z,10.75
2023-01-25T03:03:51.454Z,11.25
2023-01-25T03:06:19.612Z,10.75
2023-01-25T03:08:47.885Z,10.00
2023-01-25T03:11:15.813Z,11.00
2023-01-25T03:13:43.695Z,9.00
2023-01-25T03:16:12.726Z,10.00
2023-01-25T03:18:42.110Z,10.00
2023-01-25T03:21:11.193Z,10.00
2023-01-25T03:23:39.179Z,10.50
2023-01-25T03:26:11.246Z,10.00
2023-01-25T03:28:39.331Z,9.75
2023-01-25T03:31:07.587Z,9.75
2023-01-25T03:33:35.480Z,10.00
2023-01-25T03:36:05.736Z,10.25
2023-01-25T03:38:33.815Z,10.00
2023-01-25T03:41:01.782Z,10.50
2023-01-25T03:43:29.700Z,11.00
2023-01-25T03:45:58.937Z,8.00
2023-01-25T03:48:27.060Z,11.00
2023-01-25T03:50:55.735Z,10.00
2023-01-25T03:53:30.854Z,9.00
2023-01-25T03:55:59.618Z,9.75
2023-01-25T03:58:27.641Z,10.00
2023-01-25T04:00:56.178Z,9.50
2023-01-25T04:03:25.119Z,9.00
2023-01-25T04:05:53.288Z,9.50
2023-01-25T04:08:21.248Z,9.75
2023-01-25T04:10:53.646Z,9.75
2023-01-25T04:13:21.737Z,10.00
2023-01-25T04:15:49.642Z,9.75
2023-01-25T04:18:17.724Z,9.25
2023-01-25T04:20:45.674Z,9.75
2023-01-25T04:23:13.585Z,10.00
2023-01-25T04:25:42.026Z,10.00
2023-01-25T04:28:11.295Z,9.25
2023-01-25T04:30:39.168Z,10.00
2023-01-25T04:33:08.044Z,10.00
2023-01-25T04:35:36.285Z,9.75
2023-01-25T04:38:04.311Z,9.00
2023-01-25T04:40:32.279Z,10.00
2023-01-25T04:43:00.212Z,9.75
2023-01-25T04:45:29.778Z,9.00
2023-01-25T04:47:57.765Z,9.25
2023-01-25T04:50:25.721Z,9.75
2023-01-25T04:52:53.619Z,10.50
2023-01-25T04:55:21.509Z,9.75
2023-01-25T04:57:50.496Z,9.50
2023-01-25T05:00:19.189Z,9.00
2023-01-25T05:02:48.478Z,10.25
2023-01-25T05:05:16.919Z,8.50
2023-01-25T05:07:44.801Z,8.75
2023-01-25T05:10:12.797Z,10.00
2023-01-25T05:12:40.702Z,9.00
2023-01-25T05:15:12.706Z,11.00
2023-01-25T05:17:40.705Z,11.25
2023-01-25T05:20:11.848Z,12.25
2023-01-25T05:22:39.761Z,13.75
2023-01-25T05:25:28.759Z,14.00
2023-01-25T05:27:55.631Z,13.25
2023-01-25T05:30:23.526Z,14.75
2023-01-25T05:32:51.421Z,16.00
2023-01-25T05:35:20.963Z,15.25
2023-01-25T05:37:48.867Z,16.00
2023-01-25T05:40:16.942Z,17.00
2023-01-25T05:42:44.887Z,18.00
2023-01-25T05:45:13.122Z,17.00
2023-01-25T05:47:41.159Z,18.00
2023-01-25T05:50:10.023Z,17.50
2023-01-25T05:52:39.292Z,18.00
2023-01-25T05:55:08.170Z,16.75
2023-01-25T05:57:36.309Z,18.25
2023-01-25T06:00:04.915Z,19.75
2023-01-25T06:02:33.289Z,18.75
2023-01-25T06:05:01.572Z,18.00
2023-01-25T06:07:29.473Z,18.75
2023-01-25T06:09:58.843Z,17.25
2023-01-25T06:12:28.276Z,19.75
2023-01-25T06:14:57.516Z,20.00
2023-01-25T06:17:25.478Z,19.25
2023-01-25T06:19:53.384Z,17.75
2023-01-25T06:22:21.820Z,17.00
2023-01-25T06:24:50.196Z,19.00
2023-01-25T06:27:19.507Z,18.75
2023-01-25T06:29:47.740Z,18.00
2023-01-25T06:32:15.692Z,18.00
2023-01-25T06:34:43.837Z,19.00
2023-01-25T06:37:12.498Z,17.25
2023-01-25T06:39:40.390Z,16.50
2023-01-25T06:42:10.348Z,16.25
2023-01-25T06:44:39.613Z,17.25
2023-01-25T06:47:09.544Z,17.00
2023-01-25T06:49:37.406Z,17.25
2023-01-25T06:52:05.323Z,16.25
2023-01-25T06:54:34.460Z,15.50
2023-01-25T06:57:02.537Z,16.50
2023-01-25T06:59:30.412Z,15.75
2023-01-25T07:01:59.796Z,15.50
2023-01-25T07:04:27.752Z,14.25
2023-01-25T07:06:55.934Z,15.25
2023-01-25T07:09:24.269Z,16.25
2023-01-25T07:11:52.201Z,15.25
2023-01-25T07:14:20.287Z,15.00
2023-01-25T07:16:48.470Z,16.75
2023-01-25T07:19:18.040Z,15.00
2023-01-25T07:21:47.096Z,14.50
2023-01-25T07:24:16.034Z,15.25
2023-01-25T07:26:44.014Z,15.00
2023-01-25T07:29:13.809Z,15.75
2023-01-25T07:31:42.270Z,15.50
2023-01-25T07:34:10.523Z,14.75
2023-01-25T07:36:40.140Z,15.00
2023-01-25T07:39:09.320Z,14.50
2023-01-25T07:41:37.193Z,14.00
2023-01-25T07:44:05.220Z,13.75
2023-01-25T07:46:33.464Z,13.00
2023-01-25T07:49:01.402Z,12.75
2023-01-25T07:51:31.047Z,14.50
2023-01-25T07:54:01.687Z,14.00
2023-01-25T07:56:31.906Z,13.25
2023-01-25T07:59:00.171Z,12.75
2023-01-25T08:01:28.755Z,13.50
2023-01-25T08:03:57.340Z,12.00
2023-01-25T08:06:27.606Z,12.50
2023-01-25T08:08:56.060Z,12.25
2023-01-25T08:11:26.574Z,12.50
2023-01-25T08:13:54.535Z,12.50
2023-01-25T08:16:24.144Z,12.25
2023-01-25T08:18:52.647Z,14.00
2023-01-25T08:21:20.537Z,13.00
2023-01-25T08:23:48.538Z,12.00
2023-01-25T08:26:18.125Z,13.75
2023-01-25T08:28:47.428Z,12.25
2023-01-25T08:31:16.205Z,12.00
2023-01-25T08:33:46.109Z,12.00
2023-01-25T08:36:14.551Z,11.00
2023-01-25T08:38:42.552Z,11.00
2023-01-25T08:41:11.348Z,12.50
2023-01-25T08:43:39.371Z,13.00
2023-01-25T08:46:09.028Z,11.75
2023-01-25T08:48:36.960Z,13.00
2023-01-25T08:51:05.143Z,11.00
2023-01-25T08:53:33.877Z,12.00
2023-01-25T08:56:05.996Z,11.50
2023-01-25T08:58:34.212Z,11.00
2023-01-25T09:01:03.402Z,11.00
2023-01-25T09:03:32.770Z,12.00
2023-01-25T09:06:01.048Z,13.00
2023-01-25T09:08:28.919Z,12.00
2023-01-25T09:10:56.814Z,10.50
2023-01-25T09:13:24.711Z,11.75
2023-01-25T09:15:52.872Z,12.00
2023-01-25T09:18:20.796Z,11.75
2023-01-25T09:20:50.150Z,11.25
2023-01-25T09:23:19.651Z,12.25
2023-01-25T09:25:47.843Z,12.75
2023-01-25T09:28:15.827Z,11.00
2023-01-25T09:30:47.612Z,11.25
2023-01-25T09:33:19.535Z,11.00
2023-01-25T09:35:51.982Z,11.25
2023-01-25T09:38:19.909Z,11.25
2023-01-25T09:40:52.929Z,10.00
2023-01-25T09:43:23.097Z,11.00
2023-01-25T09:45:51.299Z,10.50
2023-01-25T09:48:22.331Z,11.00
2023-01-25T09:51:09.869Z,11.50
2023-01-25T09:53:38.188Z,11.75
2023-01-25T09:56:10.453Z,12.00
2023-01-25T09:58:39.379Z,12.00
2023-01-25T10:01:36.697Z,10.00
2023-01-25T10:04:08.649Z,12.00
2023-01-25T10:06:46.129Z,10.00
2023-01-25T10:09:24.713Z,10.00
2023-01-25T10:11:52.614Z,11.00
2023-01-25T10:14:21.545Z,11.75
2023-01-25T10:16:56.639Z,11.75
2023-01-25T10:19:26.581Z,12.75
2023-01-25T10:21:57.123Z,11.00
2023-01-25T10:24:46.278Z,11.00
2023-01-25T10:27:20.165Z,11.25
2023-01-25T10:29:50.436Z,12.75
2023-01-25T10:32:20.422Z,13.25
2023-01-25T10:34:56.339Z,12.25
2023-01-25T10:37:28.753Z,11.75
2023-01-25T10:40:00.269Z,12.50
2023-01-25T10:42:28.553Z,12.75
2023-01-25T10:44:56.714Z,13.00
2023-01-25T10:47:25.537Z,12.00
2023-01-25T10:49:53.992Z,13.00
2023-01-25T10:52:23.223Z,11.25
2023-01-25T10:55:15.136Z,12.50
2023-01-25T10:57:46.673Z,12.00
2023-01-25T11:00:24.714Z,13.00
2023-01-25T11:02:53.931Z,12.00
2023-01-25T11:05:30.580Z,12.00
2023-01-25T11:07:58.587Z,12.00
2023-01-25T11:10:32.582Z,11.50
2023-01-25T11:13:21.868Z,12.75
2023-01-25T11:15:50.829Z,12.00
2023-01-25T11:18:20.495Z,12.75
2023-01-25T11:20:48.439Z,13.00
2023-01-25T11:23:23.190Z,11.50
2023-01-25T11:25:53.006Z,12.00
2023-01-25T11:28:22.979Z,13.50
2023-01-25T11:30:51.155Z,13.00
2023-01-25T11:33:21.077Z,11.25
2023-01-25T11:36:16.586Z,13.00
2023-01-25T11:38:47.514Z,12.00
2023-01-25T11:41:19.416Z,12.75
2023-01-25T11:44:04.072Z,12.75
2023-01-25T11:46:40.449Z,12.75
2023-01-25T11:49:29.146Z,11.50
2023-01-25T11:51:59.925Z,11.25
2023-01-25T11:54:39.303Z,12.00
2023-01-25T11:57:14.889Z,12.25
2023-01-25T11:59:54.886Z,12.00
2023-01-25T12:02:48.515Z,11.50
2023-01-25T12:05:22.775Z,13.00
2023-01-25T12:07:52.701Z,13.00
2023-01-25T12:10:26.810Z,11.25
2023-01-25T12:12:59.194Z,12.75
2023-01-25T12:15:49.202Z,12.00
2023-01-25T12:19:04.909Z,12.00
2023-01-25T12:21:41.387Z,11.25
2023-01-25T12:24:24.361Z,11.75
2023-01-25T12:26:55.709Z,11.75
2023-01-25T12:29:28.425Z,12.50
2023-01-25T12:31:58.314Z,11.75
2023-01-25T12:34:28.654Z,11.00
2023-01-25T12:36:57.065Z,12.50
2023-01-25T12:39:26.195Z,12.75
2023-01-25T12:41:57.426Z,12.50
2023-01-25T12:44:28.288Z,12.00
2023-01-25T12:46:58.920Z,12.00
2023-01-25T12:49:30.608Z,12.25
2023-01-25T12:52:00.283Z,12.00
2023-01-25T12:54:31.412Z,12.00
2023-01-25T12:57:05.339Z,12.75
2023-01-25T12:59:39.302Z,11.00
2023-01-25T13:02:16.331Z,12.00
2023-01-25T13:04:52.122Z,12.75
2023-01-25T13:07:22.095Z,13.00
2023-01-25T13:09:54.610Z,11.75
2023-01-25T13:12:24.645Z,12.00
2023-01-25T13:14:54.195Z,13.50
2023-01-25T13:17:26.494Z,13.25
2023-01-25T13:19:54.567Z,11.75
2023-01-25T13:22:58.817Z,13.75
2023-01-25T13:25:27.456Z,12.50
2023-01-25T13:28:23.731Z,12.00
2023-01-25T13:30:55.828Z,11.00
2023-01-25T13:33:33.980Z,14.00
2023-01-25T13:36:41.238Z,13.00
2023-01-25T13:39:47.236Z,12.00
2023-01-25T13:42:22.784Z,13.50
2023-01-25T13:44:51.956Z,12.00
2023-01-25T13:47:22.508Z,11.50
2023-01-25T13:49:53.658Z,11.50
2023-01-25T13:52:22.454Z,13.00
2023-01-25T13:54:51.709Z,11.75
2023-01-25T13:57:22.079Z,12.75
2023-01-25T13:59:52.438Z,12.50
2023-01-25T14:02:24.772Z,12.50
2023-01-25T14:04:53.079Z,13.75
2023-01-25T14:07:32.772Z,12.00
2023-01-25T14:10:02.458Z,12.00
2023-01-25T14:12:36.706Z,11.50
2023-01-25T14:15:22.809Z,13.25
2023-01-25T14:18:14.738Z,12.50
2023-01-25T14:20:42.637Z,12.25
2023-01-25T14:23:26.570Z,12.00
2023-01-25T14:25:55.057Z,13.25
2023-01-25T14:28:22.979Z,13.00
2023-01-25T14:30:54.861Z,13.00
2023-01-25T14:33:26.704Z,12.25
2023-01-25T14:36:00.100Z,13.75
2023-01-25T14:38:32.409Z,13.75
2023-01-25T14:41:03.027Z,14.00
2023-01-25T14:43:31.226Z,12.50
2023-01-25T14:45:59.401Z,12.50
2023-01-25T14:48:49.486Z,12.75
2023-01-25T14:51:27.373Z,11.50
2023-01-25T14:53:59.045Z,13.00
2023-01-25T14:56:41.835Z,13.00
2023-01-25T14:59:21.593Z,14.75
2023-01-25T15:01:50.778Z,12.75
2023-01-25T15:04:20.057Z,12.00
2023-01-25T15:06:49.125Z,12.00
2023-01-25T15:09:38.534Z,14.50
2023-01-25T15:12:23.025Z,12.50
2023-01-25T15:14:51.603Z,11.75
2023-01-25T15:17:39.984Z,13.50
2023-01-25T15:20:30.919Z,12.50
2023-01-25T15:23:00.409Z,13.50
2023-01-25T15:25:28.666Z,13.00
2023-01-25T15:27:56.532Z,13.00
2023-01-25T15:30:24.496Z,12.50
2023-01-25T15:32:52.432Z,12.25
2023-01-25T15:35:21.196Z,12.00
2023-01-25T15:37:50.576Z,12.50
2023-01-25T15:40:18.617Z,13.25
2023-01-25T15:42:46.498Z,11.75
2023-01-25T15:45:14.739Z,13.00
2023-01-25T15:47:42.693Z,12.25
2023-01-25T15:50:17.832Z,12.75
2023-01-25T15:52:45.746Z,12.00
2023-01-25T15:55:17.493Z,14.25
2023-01-25T15:57:46.880Z,13.50
2023-01-25T16:00:18.891Z,13.00
2023-01-25T16:02:47.052Z,13.25
2023-01-25T16:05:14.928Z,13.00
2023-01-25T16:07:43.499Z,12.00
2023-01-25T16:10:20.020Z,11.75
2023-01-25T16:12:48.237Z,13.00
2023-01-25T16:15:16.485Z,12.25
2023-01-25T16:17:44.553Z,12.50
2023-01-25T16:20:17.601Z,13.00
2023-01-25T16:22:45.562Z,13.00
2023-01-25T16:25:13.445Z,12.00
2023-01-25T16:27:42.767Z,13.00
2023-01-25T16:30:18.645Z,12.00
2023-01-25T16:32:46.776Z,13.00
2023-01-25T16:35:16.043Z,12.00
2023-01-25T16:37:44.050Z,12.00
2023-01-25T16:40:20.693Z,14.00
2023-01-25T16:42:50.144Z,11.75
2023-01-25T16:45:19.390Z,11.50
2023-01-25T16:47:47.713Z,11.25
2023-01-25T16:50:15.713Z,12.75
2023-01-25T16:52:44.957Z,12.00
2023-01-25T16:55:13.584Z,10.75
2023-01-25T16:57:41.759Z,12.50
2023-01-25T17:00:14.924Z,12.00
2023-01-25T17:02:56.996Z,11.00
2023-01-25T17:05:29.014Z,11.75
2023-01-25T17:07:57.076Z,11.50
2023-01-25T17:10:24.983Z,12.50
2023-01-25T17:12:54.122Z,11.25
2023-01-25T17:15:23.914Z,12.50
2023-01-25T17:17:51.888Z,11.50
2023-01-25T17:20:19.972Z,11.75
2023-01-25T17:22:51.037Z,12.00
2023-01-25T17:25:19.330Z,11.00
2023-01-25T17:27:47.472Z,10.75
2023-01-25T17:30:15.801Z,12.00
2023-01-25T17:32:45.084Z,12.00
2023-01-25T17:35:13.263Z,12.00
2023-01-25T17:37:41.225Z,11.00
2023-01-25T17:40:11.296Z,10.25
2023-01-25T17:42:39.492Z,13.00
2023-01-25T17:45:11.138Z,12.00
2023-01-25T17:47:39.516Z,12.75
2023-01-25T17:50:10.670Z,11.25
2023-01-25T17:52:38.756Z,12.75
2023-01-25T17:55:07.875Z,13.00
2023-01-25T17:57:37.212Z,14.00
2023-01-25T18:00:05.914Z,16.50
2023-01-25T18:02:36.520Z,15.25
2023-01-25T18:05:04.948Z,16.00
2023-01-25T18:07:34.479Z,17.50
2023-01-25T18:10:02.368Z,16.75
2023-01-25T18:12:30.259Z,17.75
2023-01-25T18:14:58.479Z,16.75
2023-01-25T18:17:26.499Z,17.00
2023-01-25T18:19:54.391Z,17.00
2023-01-25T18:22:23.392Z,19.00
2023-01-25T18:24:52.944Z,18.50
2023-01-25T18:27:21.768Z,18.75
2023-01-25T18:29:54.131Z,18.00
2023-01-25T18:32:22.164Z,16.50
2023-01-25T18:34:50.325Z,19.00
2023-01-25T18:37:21.839Z,16.75
2023-01-25T18:39:50.264Z,18.25
2023-01-25T18:42:19.796Z,17.00
2023-01-25T18:44:49.181Z,17.00
2023-01-25T18:47:18.550Z,17.50
2023-01-25T18:49:50.428Z,15.50
2023-01-25T18:52:18.673Z,17.75
2023-01-25T18:54:47.030Z,16.75
2023-01-25T18:57:15.078Z,16.00
2023-01-25T18:59:44.457Z,17.25
2023-01-25T19:02:12.896Z,15.50
2023-01-25T19:04:40.840Z,16.00
2023-01-25T19:07:09.027Z,15.00
2023-01-25T19:09:37.179Z,14.25
2023-01-25T19:12:05.592Z,14.50
2023-01-25T19:14:33.823Z,14.75
2023-01-25T19:17:03.779Z,13.25
2023-01-25T19:19:33.709Z,13.75
2023-01-25T19:22:02.133Z,14.00
2023-01-25T19:24:30.080Z,13.25
2023-01-25T19:26:58.326Z,12.00
2023-01-25T19:29:26.330Z,14.25
2023-01-25T19:31:54.375Z,13.75
2023-01-25T19:34:23.951Z,14.75
2023-01-25T19:36:53.989Z,15.50
2023-01-25T19:39:22.507Z,15.50
2023-01-25T19:41:52.432Z,17.00
2023-01-25T19:44:20.668Z,17.75
2023-01-25T19:46:48.685Z,19.75
2023-01-25T19:49:16.819Z,19.50
2023-01-25T19:51:52.772Z,20.50
2023-01-25T19:54:21.697Z,19.75
2023-01-25T19:56:49.957Z,20.00
2023-01-25T19:59:18.692Z,20.00
2023-01-25T20:01:46.820Z,19.50
2023-01-25T20:04:15.507Z,20.00
2023-01-25T20:06:45.849Z,20.25
2023-01-25T20:09:14.264Z,20.00
2023-01-25T20:11:42.176Z,19.00
2023-01-25T20:14:11.449Z,20.00
2023-01-25T20:16:39.314Z,21.00
2023-01-25T20:19:07.254Z,20.25
2023-01-25T20:21:38.159Z,19.00
2023-01-25T20:24:09.911Z,20.00
2023-01-25T20:26:39.795Z,19.75
2023-01-25T20:29:07.776Z,20.75
2023-01-25T20:31:36.512Z,19.25
2023-01-25T20:34:05.901Z,20.00
2023-01-25T20:36:34.878Z,20.00
2023-01-25T20:39:02.860Z,21.25
2023-01-25T20:41:32.197Z,21.00
2023-01-25T20:44:01.982Z,22.00
2023-01-25T20:46:33.905Z,22.75
2023-01-25T20:49:02.296Z,23.25
2023-01-25T20:51:30.224Z,23.50
2023-01-25T20:53:58.257Z,23.00
2023-01-25T20:56:26.542Z,23.50
2023-01-25T20:58:55.857Z,25.25
2023-01-25T21:01:24.656Z,23.25
2023-01-25T21:03:54.359Z,23.75
2023-01-25T21:06:22.594Z,23.50
2023-01-25T21:08:50.551Z,23.75
2023-01-25T21:11:18.533Z,23.00
2023-01-25T21:13:46.463Z,23.00
2023-01-25T21:16:17.934Z,23.75
2023-01-25T21:18:48.293Z,22.75
2023-01-25T21:21:17.688Z,24.00
2023-01-25T21:23:47.498Z,22.50
2023-01-25T21:26:16.429Z,22.00
2023-01-25T21:28:44.418Z,22.00
2023-01-25T21:31:13.211Z,22.50
2023-01-25T21:33:42.735Z,21.50
2023-01-25T21:36:11.723Z,21.75
2023-01-25T21:38:39.968Z,22.00
2023-01-25T21:41:08.874Z,20.25
2023-01-25T21:43:51.088Z,21.00
2023-01-25T21:46:25.556Z,20.00
2023-01-25T21:49:12.754Z,21.50
2023-01-25T21:51:46.963Z,19.50
2023-01-25T21:54:15.939Z,20.25
2023-01-25T21:56:44.096Z,20.00
2023-01-25T21:59:12.030Z,20.00
2023-01-25T22:01:39.964Z,18.75
2023-01-25T22:04:09.213Z,19.00
2023-01-25T22:06:37.509Z,18.50
2023-01-25T22:09:05.495Z,19.00
2023-01-25T22:11:33.409Z,17.75
2023-01-25T22:14:01.811Z,18.50
2023-01-25T22:16:30.429Z,16.50
2023-01-25T22:18:59.905Z,18.00
2023-01-25T22:21:31.093Z,16.25
2023-01-25T22:24:00.282Z,17.75
2023-01-25T22:26:32.055Z,18.00
2023-01-25T22:29:00.374Z,17.75
2023-01-25T22:31:29.967Z,19.50
2023-01-25T22:33:59.689Z,20.00
2023-01-25T22:36:30.264Z,19.75
2023-01-25T22:39:00.175Z,20.00
2023-01-25T22:41:29.045Z,20.00
2023-01-25T22:43:57.855Z,20.25
2023-01-25T22:46:26.973Z,20.50
2023-01-25T22:48:54.926Z,22.00
2023-01-25T22:51:25.444Z,22.00
2023-01-25T22:53:55.091Z,20.75
2023-01-25T22:56:23.667Z,22.00
2023-01-25T22:58:51.603Z,21.50
2023-01-25T23:01:20.461Z,20.00
2023-01-25T23:03:48.660Z,21.00
2023-01-25T23:06:17.616Z,20.75
2023-01-25T23:08:45.566Z,21.00
2023-01-25T23:11:16.069Z,21.00
2023-01-25T23:14:04.264Z,21.75
2023-01-25T23:16:32.246Z,20.25
2023-01-25T23:18:59.094Z,20.00
2023-01-25T23:21:28.346Z,21.00
2023-01-25T23:23:56.242Z,21.00
2023-01-25T23:26:25.818Z,20.00
2023-01-25T23:28:54.656Z,19.75
2023-01-25T23:31:24.257Z,20.00
2023-01-25T23:33:53.030Z,20.00
2023-01-25T23:36:22.105Z,19.75
2023-01-25T23:38:50.041Z,20.00
2023-01-25T23:41:20.575Z,19.25
2023-01-25T23:43:50.178Z,17.50
2023-01-25T23:46:18.465Z,18.75
2023-01-25T23:48:46.845Z,18.50
2023-01-25T23:51:15.577Z,18.00
2023-01-25T23:53:43.515Z,18.25
2023-01-25T23:56:13.392Z,16.75
2023-01-25T23:58:41.396Z,17.00
